sensor_id;sensor_type;location;lat;lon;timestamp;pressure;altitude;pressure_sealevel;temperature;humidity
19795;BME280;10057;59.402;17.866;2023-04-30T00:00:17;100469.53;;;4.28;75.13
19795;BME280;10057;59.402;17.866;2023-04-30T00:02:44;100469.53;;;4.26;75.24
19795;BME280;10057;59.402;17.866;2023-04-30T00:05:11;100482.66;;;4.26;75.00
19795;BME280;10057;59.402;17.866;2023-04-30T00:07:38;100478.31;;;4.25;75.05
19795;BME280;10057;59.402;17.866;2023-04-30T00:10:10;100485.31;;;4.23;74.99
19795;BME280;10057;59.402;17.866;2023-04-30T00:12:37;100490.56;;;4.23;74.80
19795;BME280;10057;59.402;17.866;2023-04-30T00:15:04;100491.47;;;4.24;74.84
19795;BME280;10057;59.402;17.866;2023-04-30T00:17:31;100495.81;;;4.23;74.81
19795;BME280;10057;59.402;17.866;2023-04-30T00:19:58;100497.63;;;4.21;74.96
19795;BME280;10057;59.402;17.866;2023-04-30T00:22:25;100503.75;;;4.22;74.69
19795;BME280;10057;59.402;17.866;2023-04-30T00:24:51;100501.13;;;4.20;74.65
19795;BME280;10057;59.402;17.866;2023-04-30T00:27:18;100517.81;;;4.18;75.04
19795;BME280;10057;59.402;17.866;2023-04-30T00:29:44;100510.81;;;4.18;74.89
19795;BME280;10057;59.402;17.866;2023-04-30T00:32:11;100510.81;;;4.17;75.05
19795;BME280;10057;59.402;17.866;2023-04-30T00:34:38;100513.47;;;4.15;74.59
19795;BME280;10057;59.402;17.866;2023-04-30T00:37:05;100520.50;;;4.13;74.58
19795;BME280;10057;59.402;17.866;2023-04-30T00:39:32;100521.38;;;4.14;74.82
19795;BME280;10057;59.402;17.866;2023-04-30T00:41:58;100524.88;;;4.14;74.73
19795;BME280;10057;59.402;17.866;2023-04-30T00:44:25;100530.16;;;4.11;74.47
19795;BME280;10057;59.402;17.866;2023-04-30T00:46:51;100528.41;;;4.12;74.45
19795;BME280;10057;59.402;17.866;2023-04-30T00:49:18;100531.03;;;4.10;74.42
19795;BME280;10057;59.402;17.866;2023-04-30T00:51:45;100525.78;;;4.10;74.52
19795;BME280;10057;59.402;17.866;2023-04-30T00:54:13;100536.28;;;4.10;74.39
19795;BME280;10057;59.402;17.866;2023-04-30T00:56:40;100538.06;;;4.08;74.41
19795;BME280;10057;59.402;17.866;2023-04-30T00:59:07;100533.72;;;4.07;74.18
19795;BME280;10057;59.402;17.866;2023-04-30T01:01:34;100539.84;;;4.06;74.47
19795;BME280;10057;59.402;17.866;2023-04-30T01:04:01;100546.03;;;4.03;74.32
19795;BME280;10057;59.402;17.866;2023-04-30T01:06:28;100550.41;;;4.00;74.64
19795;BME280;10057;59.402;17.866;2023-04-30T01:08:55;100552.19;;;3.99;74.27
19795;BME280;10057;59.402;17.866;2023-04-30T01:19:45;100554.00;;;3.94;74.18
19795;BME280;10057;59.402;17.866;2023-04-30T01:22:34;100568.88;;;3.95;74.38
19795;BME280;10057;59.402;17.866;2023-04-30T01:25:57;100571.53;;;3.94;74.34
19795;BME280;10057;59.402;17.866;2023-04-30T01:30:35;100582.06;;;3.91;74.30
19795;BME280;10057;59.402;17.866;2023-04-30T01:33:02;100567.22;;;3.88;73.90
19795;BME280;10057;59.402;17.866;2023-04-30T01:44:02;100572.56;;;3.80;73.71
19795;BME280;10057;59.402;17.866;2023-04-30T01:46:32;100585.69;;;3.80;73.53
19795;BME280;10057;59.402;17.866;2023-04-30T01:49:22;100587.44;;;3.80;73.63
19795;BME280;10057;59.402;17.866;2023-04-30T01:51:59;100587.44;;;3.78;73.95
19795;BME280;10057;59.402;17.866;2023-04-30T01:54:50;100581.38;;;3.75;73.90
19795;BME280;10057;59.402;17.866;2023-04-30T01:57:33;100579.59;;;3.75;73.58
19795;BME280;10057;59.402;17.866;2023-04-30T02:00:03;100583.16;;;3.73;73.82
19795;BME280;10057;59.402;17.866;2023-04-30T02:02:30;100584.03;;;3.73;73.83
19795;BME280;10057;59.402;17.866;2023-04-30T02:04:57;100578.78;;;3.73;73.47
19795;BME280;10057;59.402;17.866;2023-04-30T02:07:45;100587.50;;;3.72;73.48
19795;BME280;10057;59.402;17.866;2023-04-30T02:10:14;100582.28;;;3.71;73.33
19795;BME280;10057;59.402;17.866;2023-04-30T02:12:40;100584.94;;;3.69;73.61
19795;BME280;10057;59.402;17.866;2023-04-30T02:15:08;100584.97;;;3.66;73.39
19795;BME280;10057;59.402;17.866;2023-04-30T02:17:35;100591.94;;;3.66;73.48
19795;BME280;10057;59.402;17.866;2023-04-30T02:20:01;100585.00;;;3.62;72.95
19795;BME280;10057;59.402;17.866;2023-04-30T02:22:28;100590.25;;;3.62;73.37
19795;BME280;10057;59.402;17.866;2023-04-30T02:24:55;100595.53;;;3.60;73.18
19795;BME280;10057;59.402;17.866;2023-04-30T02:27:23;100589.41;;;3.58;72.96
19795;BME280;10057;59.402;17.866;2023-04-30T02:29:52;100588.56;;;3.58;72.80
19795;BME280;10057;59.402;17.866;2023-04-30T02:32:19;100586.84;;;3.56;72.86
19795;BME280;10057;59.402;17.866;2023-04-30T02:34:46;100598.22;;;3.54;72.74
19795;BME280;10057;59.402;17.866;2023-04-30T02:37:12;100599.09;;;3.51;72.56
19795;BME280;10057;59.402;17.866;2023-04-30T02:39:39;100604.41;;;3.47;72.51
19795;BME280;10057;59.402;17.866;2023-04-30T02:42:06;100614.06;;;3.42;72.66
19795;BME280;10057;59.402;17.866;2023-04-30T02:44:33;100617.59;;;3.38;72.35
19795;BME280;10057;59.402;17.866;2023-04-30T02:47:01;100615.00;;;3.35;72.33
19795;BME280;10057;59.402;17.866;2023-04-30T02:49:28;100613.34;;;3.29;72.41
19795;BME280;10057;59.402;17.866;2023-04-30T02:51:55;100623.84;;;3.26;72.70
19795;BME280;10057;59.402;17.866;2023-04-30T02:54:22;100617.78;;;3.22;72.56
19795;BME280;10057;59.402;17.866;2023-04-30T02:56:48;100629.13;;;3.21;72.55
19795;BME280;10057;59.402;17.866;2023-04-30T02:59:15;100629.16;;;3.17;72.41
19795;BME280;10057;59.402;17.866;2023-04-30T03:01:42;100627.47;;;3.13;72.50
19795;BME280;10057;59.402;17.866;2023-04-30T03:04:08;100628.38;;;3.08;72.52
19795;BME280;10057;59.402;17.866;2023-04-30T03:06:35;100630.16;;;3.05;72.40
19795;BME280;10057;59.402;17.866;2023-04-30T03:09:02;100624.94;;;3.02;72.52
19795;BME280;10057;59.402;17.866;2023-04-30T03:11:29;100637.16;;;3.00;72.49
19795;BME280;10057;59.402;17.866;2023-04-30T03:13:55;100639.84;;;2.95;72.31
19795;BME280;10057;59.402;17.866;2023-04-30T03:16:22;100639.84;;;2.92;72.59
19795;BME280;10057;59.402;17.866;2023-04-30T03:18:49;100640.75;;;2.87;72.46
19795;BME280;10057;59.402;17.866;2023-04-30T03:21:16;100653.88;;;2.83;72.21
19795;BME280;10057;59.402;17.866;2023-04-30T03:23:43;100641.69;;;2.79;72.39
19795;BME280;10057;59.402;17.866;2023-04-30T03:26:09;100651.31;;;2.77;72.72
19795;BME280;10057;59.402;17.866;2023-04-30T03:28:36;100646.09;;;2.74;72.06
19795;BME280;10057;59.402;17.866;2023-04-30T03:31:03;100647.84;;;2.72;72.57
19795;BME280;10057;59.402;17.866;2023-04-30T03:33:31;100647.00;;;2.69;72.48
19795;BME280;10057;59.402;17.866;2023-04-30T03:35:58;100651.38;;;2.68;72.11
19795;BME280;10057;59.402;17.866;2023-04-30T03:38:25;100649.66;;;2.64;72.40
19795;BME280;10057;59.402;17.866;2023-04-30T03:40:52;100661.88;;;2.65;71.99
19795;BME280;10057;59.402;17.866;2023-04-30T03:43:18;100661.00;;;2.63;71.92
19795;BME280;10057;59.402;17.866;2023-04-30T03:45:45;100668.00;;;2.63;72.39
19795;BME280;10057;59.402;17.866;2023-04-30T03:48:12;100678.47;;;2.63;72.24
19795;BME280;10057;59.402;17.866;2023-04-30T03:50:39;100674.13;;;2.61;72.03
19795;BME280;10057;59.402;17.866;2023-04-30T03:53:06;100677.59;;;2.62;71.84
19795;BME280;10057;59.402;17.866;2023-04-30T03:55:33;100674.09;;;2.63;71.81
19795;BME280;10057;59.402;17.866;2023-04-30T03:57:59;100676.72;;;2.65;71.52
19795;BME280;10057;59.402;17.866;2023-04-30T04:00:26;100675.84;;;2.66;71.50
19795;BME280;10057;59.402;17.866;2023-04-30T04:02:53;100674.97;;;2.65;71.54
19795;BME280;10057;59.402;17.866;2023-04-30T04:05:20;100682.81;;;2.65;71.49
19795;BME280;10057;59.402;17.866;2023-04-30T04:07:47;100671.47;;;2.65;71.17
19795;BME280;10057;59.402;17.866;2023-04-30T04:10:14;100683.69;;;2.69;71.40
19795;BME280;10057;59.402;17.866;2023-04-30T04:12:41;100695.91;;;2.71;71.03
19795;BME280;10057;59.402;17.866;2023-04-30T04:15:08;100692.38;;;2.72;71.20
19795;BME280;10057;59.402;17.866;2023-04-30T04:17:34;100689.75;;;2.72;70.86
19795;BME280;10057;59.402;17.866;2023-04-30T04:20:01;100707.22;;;2.75;70.93
19795;BME280;10057;59.402;17.866;2023-04-30T04:22:31;100711.59;;;2.77;70.36
19795;BME280;10057;59.402;17.866;2023-04-30T04:24:58;100713.31;;;2.78;70.42
19795;BME280;10057;59.402;17.866;2023-04-30T04:27:24;100707.19;;;2.81;70.11
19795;BME280;10057;59.402;17.866;2023-04-30T04:29:51;100715.91;;;2.81;70.00
19795;BME280;10057;59.402;17.866;2023-04-30T04:32:18;100710.66;;;2.84;70.02
19795;BME280;10057;59.402;17.866;2023-04-30T04:34:45;100712.38;;;2.89;69.95
19795;BME280;10057;59.402;17.866;2023-04-30T04:37:12;100715.88;;;2.91;69.53
19795;BME280;10057;59.402;17.866;2023-04-30T04:39:40;100717.59;;;2.92;69.68
19795;BME280;10057;59.402;17.866;2023-04-30T04:42:07;100716.72;;;2.94;69.78
19795;BME280;10057;59.402;17.866;2023-04-30T04:44:35;100729.78;;;2.99;69.88
19795;BME280;10057;59.402;17.866;2023-04-30T04:47:01;100732.41;;;3.02;69.52
19795;BME280;10057;59.402;17.866;2023-04-30T04:49:29;100719.28;;;3.02;69.48
19795;BME280;10057;59.402;17.866;2023-04-30T04:51:56;100735.84;;;3.04;69.13
19795;BME280;10057;59.402;17.866;2023-04-30T04:54:23;100732.38;;;3.03;69.16
19795;BME280;10057;59.402;17.866;2023-04-30T04:56:49;100742.84;;;3.06;69.55
19795;BME280;10057;59.402;17.866;2023-04-30T04:59:17;100736.72;;;3.06;69.35
19795;BME280;10057;59.402;17.866;2023-04-30T05:01:44;100742.84;;;3.06;69.47
19795;BME280;10057;59.402;17.866;2023-04-30T05:04:11;100744.56;;;3.07;69.27
19795;BME280;10057;59.402;17.866;2023-04-30T05:06:39;100739.31;;;3.11;69.45
19795;BME280;10057;59.402;17.866;2023-04-30T05:09:07;100744.53;;;3.15;69.64
19795;BME280;10057;59.402;17.866;2023-04-30T05:11:35;100738.38;;;3.22;69.55
19795;BME280;10057;59.402;17.866;2023-04-30T05:14:01;100750.56;;;3.26;69.07
19795;BME280;10057;59.402;17.866;2023-04-30T05:16:28;100745.38;;;3.20;68.64
19795;BME280;10057;59.402;17.866;2023-04-30T05:18:55;100756.75;;;3.18;68.93
19795;BME280;10057;59.402;17.866;2023-04-30T05:21:22;100766.34;;;3.20;69.18
19795;BME280;10057;59.402;17.866;2023-04-30T05:23:49;100757.63;;;3.18;68.98
19795;BME280;10057;59.402;17.866;2023-04-30T05:26:16;100764.63;;;3.19;68.93
19795;BME280;10057;59.402;17.866;2023-04-30T05:28:42;100768.06;;;3.21;68.94
19795;BME280;10057;59.402;17.866;2023-04-30T05:31:09;100767.19;;;3.25;68.95
19795;BME280;10057;59.402;17.866;2023-04-30T05:33:36;100769.81;;;3.25;68.75
19795;BME280;10057;59.402;17.866;2023-04-30T05:36:02;100776.78;;;3.28;68.71
19795;BME280;10057;59.402;17.866;2023-04-30T05:38:29;100772.38;;;3.31;69.00
19795;BME280;10057;59.402;17.866;2023-04-30T05:40:56;100788.94;;;3.40;69.04
19795;BME280;10057;59.402;17.866;2023-04-30T05:43:22;100787.16;;;3.42;68.84
19795;BME280;10057;59.402;17.866;2023-04-30T05:45:49;100788.94;;;3.40;68.59
19795;BME280;10057;59.402;17.866;2023-04-30T05:48:16;100797.66;;;3.42;68.34
19795;BME280;10057;59.402;17.866;2023-04-30T05:50:43;100797.72;;;3.39;68.59
19795;BME280;10057;59.402;17.866;2023-04-30T05:53:09;100796.78;;;3.41;68.81
19795;BME280;10057;59.402;17.866;2023-04-30T05:55:36;100795.94;;;3.42;68.48
19795;BME280;10057;59.402;17.866;2023-04-30T05:58:03;100806.41;;;3.44;68.61
19795;BME280;10057;59.402;17.866;2023-04-30T06:00:30;100802.88;;;3.45;68.43
19795;BME280;10057;59.402;17.866;2023-04-30T06:02:56;100810.75;;;3.46;68.25
19795;BME280;10057;59.402;17.866;2023-04-30T06:05:23;100804.66;;;3.46;68.05
19795;BME280;10057;59.402;17.866;2023-04-30T06:07:50;100818.59;;;3.48;68.35
19795;BME280;10057;59.402;17.866;2023-04-30T06:10:17;100809.81;;;3.52;68.63
19795;BME280;10057;59.402;17.866;2023-04-30T06:12:43;100819.44;;;3.54;68.39
19795;BME280;10057;59.402;17.866;2023-04-30T06:15:10;100818.53;;;3.55;68.43
19795;BME280;10057;59.402;17.866;2023-04-30T06:17:37;100809.81;;;3.52;68.50
19795;BME280;10057;59.402;17.866;2023-04-30T06:20:05;100824.69;;;3.56;68.59
19795;BME280;10057;59.402;17.866;2023-04-30T06:22:32;100819.41;;;3.61;68.39
19795;BME280;10057;59.402;17.866;2023-04-30T06:24:59;100818.53;;;3.60;68.28
19795;BME280;10057;59.402;17.866;2023-04-30T06:27:26;100819.41;;;3.61;68.17
19795;BME280;10057;59.402;17.866;2023-04-30T06:29:53;100818.53;;;3.60;67.96
19795;BME280;10057;59.402;17.866;2023-04-30T06:32:20;100831.63;;;3.62;68.23
19795;BME280;10057;59.402;17.866;2023-04-30T06:34:47;100829.03;;;3.60;68.03
19795;BME280;10057;59.402;17.866;2023-04-30T06:37:14;100832.47;;;3.65;68.32
19795;BME280;10057;59.402;17.866;2023-04-30T06:39:41;100845.53;;;3.74;68.53
19795;BME280;10057;59.402;17.866;2023-04-30T06:42:07;100844.56;;;3.85;68.08
19795;BME280;10057;59.402;17.866;2023-04-30T06:44:34;100848.88;;;3.95;68.29
19795;BME280;10057;59.402;17.866;2023-04-30T06:47:01;100854.06;;;4.04;67.96
19795;BME280;10057;59.402;17.866;2023-04-30T06:49:27;100854.88;;;4.09;67.49
19795;BME280;10057;59.402;17.866;2023-04-30T06:51:54;100855.72;;;4.14;67.54
19795;BME280;10057;59.402;17.866;2023-04-30T06:54:24;100856.50;;;4.22;67.57
19795;BME280;10057;59.402;17.866;2023-04-30T06:56:52;100850.31;;;4.30;67.39
19795;BME280;10057;59.402;17.866;2023-04-30T06:59:19;100857.25;;;4.34;67.13
19795;BME280;10057;59.402;17.866;2023-04-30T07:01:45;100869.44;;;4.41;67.53
19795;BME280;10057;59.402;17.866;2023-04-30T07:04:12;100855.38;;;4.46;67.27
19795;BME280;10057;59.402;17.866;2023-04-30T07:06:39;100866.75;;;4.50;66.73
19795;BME280;10057;59.402;17.866;2023-04-30T07:09:06;100863.19;;;4.54;66.91
19795;BME280;10057;59.402;17.866;2023-04-30T07:11:32;100863.13;;;4.60;67.31
19795;BME280;10057;59.402;17.866;2023-04-30T07:13:59;100866.59;;;4.65;66.74
19795;BME280;10057;59.402;17.866;2023-04-30T07:16:26;100877.97;;;4.66;66.63
19795;BME280;10057;59.402;17.866;2023-04-30T07:18:53;100877.06;;;4.68;66.61
19795;BME280;10057;59.402;17.866;2023-04-30T07:21:20;100884.91;;;4.73;66.50
19795;BME280;10057;59.402;17.866;2023-04-30T07:23:47;100870.88;;;4.75;66.51
19795;BME280;10057;59.402;17.866;2023-04-30T07:26:17;100890.97;;;4.80;66.37
19795;BME280;10057;59.402;17.866;2023-04-30T07:28:46;100885.66;;;4.84;66.95
19795;BME280;10057;59.402;17.866;2023-04-30T07:31:13;100887.28;;;4.96;66.81
19795;BME280;10057;59.402;17.866;2023-04-30T07:33:40;100888.06;;;5.03;66.01
19795;BME280;10057;59.402;17.866;2023-04-30T07:36:07;100885.44;;;5.03;66.15
19795;BME280;10057;59.402;17.866;2023-04-30T07:38:34;100887.09;;;5.10;66.45
19795;BME280;10057;59.402;17.866;2023-04-30T07:41:02;100892.22;;;5.20;66.48
19795;BME280;10057;59.402;17.866;2023-04-30T07:43:28;100898.19;;;5.33;65.72
19795;BME280;10057;59.402;17.866;2023-04-30T07:45:57;100895.47;;;5.41;65.28
19795;BME280;10057;59.402;17.866;2023-04-30T07:48:24;100900.69;;;5.44;65.38
19795;BME280;10057;59.402;17.866;2023-04-30T07:50:51;100909.38;;;5.51;65.08
19795;BME280;10057;59.402;17.866;2023-04-30T07:53:18;100912.72;;;5.60;65.21
19795;BME280;10057;59.402;17.866;2023-04-30T07:55:45;100934.50;;;5.75;65.02
19795;BME280;10057;59.402;17.866;2023-04-30T07:58:12;100922.13;;;5.81;64.90
19795;BME280;10057;59.402;17.866;2023-04-30T08:00:38;100922.81;;;5.91;64.36
19795;BME280;10057;59.402;17.866;2023-04-30T08:03:05;100930.53;;;6.06;64.07
19795;BME280;10057;59.402;17.866;2023-04-30T08:05:32;100940.03;;;6.15;62.67
19795;BME280;10057;59.402;17.866;2023-04-30T08:07:59;100936.59;;;6.11;63.36
19795;BME280;10057;59.402;17.866;2023-04-30T08:10:26;100937.44;;;6.12;62.98
19795;BME280;10057;59.402;17.866;2023-04-30T08:12:53;100934.84;;;6.10;62.09
19795;BME280;10057;59.402;17.866;2023-04-30T08:15:19;100946.22;;;6.14;61.79
19795;BME280;10057;59.402;17.866;2023-04-30T08:17:50;100927.63;;;6.22;61.89
19795;BME280;10057;59.402;17.866;2023-04-30T08:20:17;100933.53;;;6.37;62.22
19795;BME280;10057;59.402;17.866;2023-04-30T08:22:45;100947.34;;;6.53;61.43
19795;BME280;10057;59.402;17.866;2023-04-30T08:25:12;100945.38;;;6.64;61.41
19795;BME280;10057;59.402;17.866;2023-04-30T08:27:38;100953.94;;;6.77;60.91
19795;BME280;10057;59.402;17.866;2023-04-30T08:30:06;100963.69;;;6.74;59.99
19795;BME280;10057;59.402;17.866;2023-04-30T08:32:36;100968.19;;;6.65;59.33
19795;BME280;10057;59.402;17.866;2023-04-30T08:35:04;100967.38;;;6.62;59.98
19795;BME280;10057;59.402;17.866;2023-04-30T08:37:31;100965.44;;;6.72;59.74
19795;BME280;10057;59.402;17.866;2023-04-30T08:39:58;100978.44;;;6.82;59.91
19795;BME280;10057;59.402;17.866;2023-04-30T08:42:30;100980.81;;;6.96;60.00
19795;BME280;10057;59.402;17.866;2023-04-30T08:45:00;100989.53;;;7.01;59.74
19795;BME280;10057;59.402;17.866;2023-04-30T08:47:29;100991.28;;;7.02;59.91
19795;BME280;10057;59.402;17.866;2023-04-30T08:49:56;100989.50;;;7.04;60.08
19795;BME280;10057;59.402;17.866;2023-04-30T08:52:23;100999.03;;;7.10;60.03
19795;BME280;10057;59.402;17.866;2023-04-30T08:54:53;100999.84;;;7.15;60.06
19795;BME280;10057;59.402;17.866;2023-04-30T08:57:22;101012.03;;;7.21;60.17
19795;BME280;10057;59.402;17.866;2023-04-30T08:59:49;101003.97;;;7.28;59.94
19795;BME280;10057;59.402;17.866;2023-04-30T09:02:16;101006.41;;;7.39;59.43
19795;BME280;10057;59.402;17.866;2023-04-30T09:04:43;101019.50;;;7.44;59.38
19795;BME280;10057;59.402;17.866;2023-04-30T09:07:12;101008.78;;;7.51;59.24
19795;BME280;10057;59.402;17.866;2023-04-30T09:09:39;101011.31;;;7.57;58.83
19795;BME280;10057;59.402;17.866;2023-04-30T09:12:14;101023.47;;;7.65;58.34
19795;BME280;10057;59.402;17.866;2023-04-30T09:15:00;101024.22;;;7.73;57.79
19795;BME280;10057;59.402;17.866;2023-04-30T09:17:28;101028.53;;;7.77;57.57
19795;BME280;10057;59.402;17.866;2023-04-30T09:20:08;101020.38;;;7.88;57.83
19795;BME280;10057;59.402;17.866;2023-04-30T09:22:36;101028.13;;;7.95;56.59
19795;BME280;10057;59.402;17.866;2023-04-30T09:25:04;101022.81;;;7.95;55.71
19795;BME280;10057;59.402;17.866;2023-04-30T09:27:31;101028.19;;;7.92;55.77
19795;BME280;10057;59.402;17.866;2023-04-30T09:29:58;101031.47;;;8.03;55.63
19795;BME280;10057;59.402;17.866;2023-04-30T09:32:24;101036.47;;;8.16;55.66
19795;BME280;10057;59.402;17.866;2023-04-30T09:34:51;101034.53;;;8.24;54.83
19795;BME280;10057;59.402;17.866;2023-04-30T09:37:18;101029.09;;;8.30;55.21
19795;BME280;10057;59.402;17.866;2023-04-30T09:39:55;101037.66;;;8.43;55.08
19795;BME280;10057;59.402;17.866;2023-04-30T09:42:22;101032.03;;;8.57;54.82
19795;BME280;10057;59.402;17.866;2023-04-30T09:44:52;101040.72;;;8.62;53.18
19795;BME280;10057;59.402;17.866;2023-04-30T09:47:19;101048.69;;;8.60;52.64
19795;BME280;10057;59.402;17.866;2023-04-30T09:49:47;101027.53;;;8.60;52.66
19795;BME280;10057;59.402;17.866;2023-04-30T09:52:18;101028.13;;;8.71;52.45
19795;BME280;10057;59.402;17.866;2023-04-30T09:54:45;101034.84;;;8.85;52.25
19795;BME280;10057;59.402;17.866;2023-04-30T09:57:14;101043.56;;;8.90;52.56
19795;BME280;10057;59.402;17.866;2023-04-30T09:59:44;101034.41;;;9.01;51.96
19795;BME280;10057;59.402;17.866;2023-04-30T10:02:14;101048.34;;;9.08;50.84
19795;BME280;10057;59.402;17.866;2023-04-30T10:04:48;101036.28;;;8.98;50.80
19795;BME280;10057;59.402;17.866;2023-04-30T10:07:20;101044.13;;;9.01;51.61
19795;BME280;10057;59.402;17.866;2023-04-30T10:09:50;101044.78;;;9.11;50.50
19795;BME280;10057;59.402;17.866;2023-04-30T10:12:24;101044.78;;;9.11;49.62
19795;BME280;10057;59.402;17.866;2023-04-30T10:14:59;101043.75;;;9.16;50.05
19795;BME280;10057;59.402;17.866;2023-04-30T10:17:30;101053.06;;;9.31;50.27
19795;BME280;10057;59.402;17.866;2023-04-30T10:20:02;101054.63;;;9.38;49.40
19795;BME280;10057;59.402;17.866;2023-04-30T10:22:33;101055.56;;;9.36;49.91
19795;BME280;10057;59.402;17.866;2023-04-30T10:25:01;101062.28;;;9.49;49.95
19795;BME280;10057;59.402;17.866;2023-04-30T10:27:29;101065.75;;;9.51;48.64
19795;BME280;10057;59.402;17.866;2023-04-30T10:29:56;101066.56;;;9.53;48.44
19795;BME280;10057;59.402;17.866;2023-04-30T10:32:30;101062.03;;;9.58;49.12
19795;BME280;10057;59.402;17.866;2023-04-30T10:35:15;101055.41;;;9.73;48.13
19795;BME280;10057;59.402;17.866;2023-04-30T10:37:56;101069.59;;;9.72;47.63
19795;BME280;10057;59.402;17.866;2023-04-30T10:40:25;101067.84;;;9.71;47.29
19795;BME280;10057;59.402;17.866;2023-04-30T10:42:53;101056.88;;;9.83;47.80
19795;BME280;10057;59.402;17.866;2023-04-30T10:45:42;101064.19;;;10.05;46.69
19795;BME280;10057;59.402;17.866;2023-04-30T10:48:09;101059.81;;;10.04;45.53
19795;BME280;10057;59.402;17.866;2023-04-30T10:50:41;101059.91;;;10.01;46.19
19795;BME280;10057;59.402;17.866;2023-04-30T10:53:13;101057.75;;;10.13;45.76
19795;BME280;10057;59.402;17.866;2023-04-30T10:55:47;101074.91;;;10.31;46.45
19795;BME280;10057;59.402;17.866;2023-04-30T10:58:27;101077.72;;;10.55;45.20
19795;BME280;10057;59.402;17.866;2023-04-30T11:01:12;101097.81;;;10.34;43.82
19795;BME280;10057;59.402;17.866;2023-04-30T11:03:40;101093.63;;;9.95;44.28
19795;BME280;10057;59.402;17.866;2023-04-30T11:06:14;101094.28;;;9.72;44.38
19795;BME280;10057;59.402;17.866;2023-04-30T11:08:45;101104.13;;;9.67;44.75
19795;BME280;10057;59.402;17.866;2023-04-30T11:11:18;101120.72;;;9.74;43.91
19795;BME280;10057;59.402;17.866;2023-04-30T11:13:59;101113.28;;;9.57;43.63
19795;BME280;10057;59.402;17.866;2023-04-30T11:16:30;101111.31;;;9.30;44.21
19795;BME280;10057;59.402;17.866;2023-04-30T11:19:09;101131.91;;;9.20;nan
19795;BME280;10057;59.402;17.866;2023-04-30T11:25:10;101127.03;;;9.03;45.39
19795;BME280;10057;59.402;17.866;2023-04-30T11:27:42;101124.63;;;8.92;45.55
19795;BME280;10057;59.402;17.866;2023-04-30T11:30:15;101121.09;;;8.93;45.11
19795;BME280;10057;59.402;17.866;2023-04-30T11:32:44;101124.31;;;9.05;45.89
19795;BME280;10057;59.402;17.866;2023-04-30T11:35:17;101116.19;;;9.12;45.61
19795;BME280;10057;59.402;17.866;2023-04-30T11:37:47;101123.63;;;9.32;45.41
19795;BME280;10057;59.402;17.866;2023-04-30T11:40:14;101115.06;;;9.55;45.13
19795;BME280;10057;59.402;17.866;2023-04-30T11:42:42;101119.00;;;9.73;43.73
19795;BME280;10057;59.402;17.866;2023-04-30T11:45:13;101115.97;;;9.87;43.17
19795;BME280;10057;59.402;17.866;2023-04-30T11:47:45;101110.09;;;10.07;42.84
19795;BME280;10057;59.402;17.866;2023-04-30T11:50:14;101109.53;;;10.27;43.03
19795;BME280;10057;59.402;17.866;2023-04-30T11:52:48;101115.91;;;10.49;42.48
19795;BME280;10057;59.402;17.866;2023-04-30T11:55:23;101116.47;;;10.60;41.08
19795;BME280;10057;59.402;17.866;2023-04-30T11:57:52;101111.00;;;10.65;41.74
19795;BME280;10057;59.402;17.866;2023-04-30T12:00:28;101107.81;;;10.82;41.23
19795;BME280;10057;59.402;17.866;2023-04-30T12:02:56;101106.75;;;10.87;40.46
19795;BME280;10057;59.402;17.866;2023-04-30T12:05:24;101113.78;;;10.88;40.18
19795;BME280;10057;59.402;17.866;2023-04-30T12:10:22;101109.19;;;10.94;38.33
19795;BME280;10057;59.402;17.866;2023-04-30T12:12:50;101108.19;;;10.98;38.38
19795;BME280;10057;59.402;17.866;2023-04-30T12:15:20;101121.66;;;10.91;37.58
19795;BME280;10057;59.402;17.866;2023-04-30T12:17:55;101111.31;;;10.84;38.07
19795;BME280;10057;59.402;17.866;2023-04-30T12:20:25;101128.88;;;10.86;38.50
19795;BME280;10057;59.402;17.866;2023-04-30T12:22:53;101128.00;;;10.87;38.50
19795;BME280;10057;59.402;17.866;2023-04-30T12:25:21;101127.44;;;11.04;38.97
19795;BME280;10057;59.402;17.866;2023-04-30T12:27:50;101119.72;;;11.23;38.70
19795;BME280;10057;59.402;17.866;2023-04-30T12:30:23;101135.16;;;11.38;38.02
19795;BME280;10057;59.402;17.866;2023-04-30T12:32:52;101117.25;;;11.44;37.69
19795;BME280;10057;59.402;17.866;2023-04-30T12:35:21;101130.91;;;11.58;38.01
19795;BME280;10057;59.402;17.866;2023-04-30T12:37:53;101126.78;;;11.74;37.04
19795;BME280;10057;59.402;17.866;2023-04-30T12:40:27;101122.91;;;11.84;37.62
19795;BME280;10057;59.402;17.866;2023-04-30T12:45:52;101124.31;;;11.95;36.52
19795;BME280;10057;59.402;17.866;2023-04-30T12:48:22;101130.94;;;12.06;36.44
19795;BME280;10057;59.402;17.866;2023-04-30T12:50:53;101128.94;;;12.13;34.83
19795;BME280;10057;59.402;17.866;2023-04-30T12:53:20;101133.91;;;11.99;33.47
19795;BME280;10057;59.402;17.866;2023-04-30T12:56:10;101138.09;;;11.79;33.55
19795;BME280;10057;59.402;17.866;2023-04-30T12:58:38;101131.91;;;11.80;33.79
19795;BME280;10057;59.402;17.866;2023-04-30T13:01:10;101136.03;;;11.89;33.76
19795;BME280;10057;59.402;17.866;2023-04-30T13:03:37;101139.09;;;12.02;33.90
19795;BME280;10057;59.402;17.866;2023-04-30T13:06:04;101145.00;;;12.10;34.03
19795;BME280;10057;59.402;17.866;2023-04-30T13:08:32;101151.09;;;12.14;33.82
19795;BME280;10057;59.402;17.866;2023-04-30T13:11:15;101128.91;;;12.15;33.65
19795;BME280;10057;59.402;17.866;2023-04-30T13:13:42;101143.16;;;12.12;32.69
19795;BME280;10057;59.402;17.866;2023-04-30T13:16:09;101149.72;;;12.03;32.53
19795;BME280;10057;59.402;17.866;2023-04-30T13:18:35;101149.56;;;11.81;32.41
19795;BME280;10057;59.402;17.866;2023-04-30T13:21:02;101151.69;;;11.72;33.01
19795;BME280;10057;59.402;17.866;2023-04-30T13:23:29;101151.75;;;11.70;33.17